Time,TemperatureF,DewpointF,PressureIn,WindDirection,WindDirectionDegrees,WindSpeedMPH,WindSpeedGustMPH,Humidity,HourlyPrecipIn,Conditions,Clouds,dailyrainin,SoftwareType,DateUTC
2013-07-10 00:01:00,76.7,72.0,30.08,East,89,0.0,0.0,86,0.00,,,0.13,weatherlink.com 1.10,2013-07-10 04:01:00,
2013-07-10 00:16:00,76.7,73.0,30.08,East,89,0.0,0.0,87,0.00,,,0.00,weatherlink.com 1.10,2013-07-10 04:16:00,
2013-07-10 00:31:00,76.9,73.0,30.08,East,89,0.0,0.0,88,0.00,,,0.00,weatherlink.com 1.10,2013-07-10 04:31:00,
2013-07-10 00:46:00,77.3,74.0,30.09,East,89,0.0,0.0,88,0.00,,,0.00,weatherlink.com 1.10,2013-07-10 04:46:00,
2013-07-10 01:01:00,77.1,73.0,30.09,East,89,0.0,0.0,88,0.00,,,0.00,weatherlink.com 1.10,2013-07-10 05:01:00,
2013-07-10 01:16:00,76.7,73.0,30.08,East,89,0.0,0.0,88,0.00,,,0.00,weatherlink.com 1.10,2013-07-10 05:16:00,
2013-07-10 01:31:00,76.9,74.0,30.07,East,89,0.0,0.0,89,0.00,,,0.00,weatherlink.com 1.10,2013-07-10 05:31:00,
2013-07-10 01:46:00,76.7,73.0,30.07,East,87,0.0,0.0,89,0.00,,,0.00,weatherlink.com 1.10,2013-07-10 05:46:00,
2013-07-10 02:01:00,76.7,73.0,30.06,East,88,0.0,0.0,89,0.00,,,0.00,weatherlink.com 1.10,2013-07-10 06:01:00,
2013-07-10 02:16:00,76.2,73.0,30.06,East,87,0.0,0.0,89,0.00,,,0.00,weatherlink.com 1.10,2013-07-10 06:16:00,
2013-07-10 02:31:00,76.2,73.0,30.05,East,87,0.0,0.0,90,0.00,,,0.00,weatherlink.com 1.10,2013-07-10 06:31:00,
2013-07-10 02:46:00,76.2,73.0,30.05,East,87,0.0,0.0,90,0.00,,,0.00,weatherlink.com 1.10,2013-07-10 06:46:00,
2013-07-10 03:01:00,76.2,73.0,30.05,East,87,0.0,0.0,90,0.00,,,0.00,weatherlink.com 1.10,2013-07-10 07:01:00,
2013-07-10 03:16:00,76.2,73.0,30.05,East,87,0.0,0.0,90,0.00,,,0.00,weatherlink.com 1.10,2013-07-10 07:16:00,
2013-07-10 03:31:00,75.9,73.0,30.05,East,87,0.0,0.0,90,0.00,,,0.00,weatherlink.com 1.10,2013-07-10 07:31:00,
2013-07-10 03:46:00,76.4,73.0,30.05,NNE,21,0.0,0.0,90,0.00,,,0.00,weatherlink.com 1.10,2013-07-10 07:46:00,
2013-07-10 04:01:00,76.2,73.0,30.05,NNE,21,0.0,0.0,90,0.00,,,0.00,weatherlink.com 1.10,2013-07-10 08:01:00,
2013-07-10 04:16:00,76.2,73.0,30.05,NNE,21,0.0,0.0,90,0.00,,,0.00,weatherlink.com 1.10,2013-07-10 08:16:00,
2013-07-10 04:32:00,76.2,73.0,30.05,NNE,21,0.0,0.0,90,0.00,,,0.00,weatherlink.com 1.10,2013-07-10 08:32:00,
2013-07-10 04:46:00,76.0,73.0,30.06,NNE,21,0.0,0.0,90,0.00,,,0.00,weatherlink.com 1.10,2013-07-10 08:46:00,
2013-07-10 05:01:00,76.0,73.0,30.05,East,91,0.0,5.0,89,0.00,,,0.00,weatherlink.com 1.10,2013-07-10 09:01:00,
2013-07-10 05:16:00,75.7,72.0,30.05,East,91,0.0,0.0,89,0.01,,,0.01,weatherlink.com 1.10,2013-07-10 09:16:00,
2013-07-10 05:31:00,75.5,73.0,30.04,East,91,0.0,0.0,90,0.01,,,0.01,weatherlink.com 1.10,2013-07-10 09:31:00,
2013-07-10 05:46:00,75.5,73.0,30.04,East,91,0.0,0.0,90,0.01,,,0.01,weatherlink.com 1.10,2013-07-10 09:46:00,
2013-07-10 06:01:00,75.5,73.0,30.04,East,91,0.0,0.0,91,0.01,,,0.01,weatherlink.com 1.10,2013-07-10 10:01:00,
2013-07-10 06:16:00,75.7,73.0,30.04,East,91,0.0,0.0,91,0.00,,,0.01,weatherlink.com 1.10,2013-07-10 10:16:00,
2013-07-10 06:31:00,75.5,73.0,30.04,East,91,0.0,0.0,91,0.00,,,0.01,weatherlink.com 1.10,2013-07-10 10:31:00,
2013-07-10 06:46:00,75.5,73.0,30.04,East,91,0.0,0.0,91,0.00,,,0.01,weatherlink.com 1.10,2013-07-10 10:46:00,
2013-07-10 07:02:00,75.3,73.0,30.05,East,91,0.0,0.0,92,0.00,,,0.01,weatherlink.com 1.10,2013-07-10 11:02:00,
2013-07-10 07:16:00,75.3,73.0,30.05,East,91,0.0,0.0,92,0.00,,,0.01,weatherlink.com 1.10,2013-07-10 11:16:00,
2013-07-10 07:31:00,75.5,73.0,30.05,East,91,0.0,0.0,92,0.00,,,0.01,weatherlink.com 1.10,2013-07-10 11:31:00,
2013-07-10 07:46:00,75.9,74.0,30.06,East,91,0.0,0.0,92,0.00,,,0.01,weatherlink.com 1.10,2013-07-10 11:46:00,
2013-07-10 08:01:00,76.2,74.0,30.06,East,91,0.0,0.0,92,0.00,,,0.01,weatherlink.com 1.10,2013-07-10 12:01:00,
2013-07-10 08:16:00,76.0,73.0,30.06,East,91,0.0,0.0,91,0.00,,,0.01,weatherlink.com 1.10,2013-07-10 12:16:00,
2013-07-10 08:31:00,76.6,74.0,30.07,East,91,0.0,0.0,91,0.00,,,0.01,weatherlink.com 1.10,2013-07-10 12:31:00,
2013-07-10 08:46:00,76.9,74.0,30.08,East,91,0.0,0.0,90,0.00,,,0.01,weatherlink.com 1.10,2013-07-10 12:46:00,
2013-07-10 09:01:00,77.5,74.0,30.09,East,91,0.0,0.0,90,0.00,,,0.01,weatherlink.com 1.10,2013-07-10 13:01:00,
2013-07-10 09:19:00,77.8,74.0,30.09,East,91,0.0,0.0,89,0.00,,,0.01,weatherlink.com 1.10,2013-07-10 13:19:00,
2013-07-10 09:31:00,78.0,74.0,30.09,East,91,0.0,0.0,88,0.00,,,0.01,weatherlink.com 1.10,2013-07-10 13:31:00,
2013-07-10 09:46:00,78.2,74.0,30.09,East,91,0.0,0.0,88,0.00,,,0.01,weatherlink.com 1.10,2013-07-10 13:46:00,
2013-07-10 10:01:00,78.7,74.0,30.09,East,91,0.0,0.0,86,0.00,,,0.01,weatherlink.com 1.10,2013-07-10 14:01:00,
2013-07-10 10:16:00,79.5,74.0,30.08,East,91,0.0,0.0,84,0.00,,,0.01,weatherlink.com 1.10,2013-07-10 14:16:00,
2013-07-10 10:31:00,79.8,74.0,30.08,East,91,0.0,0.0,82,0.00,,,0.01,weatherlink.com 1.10,2013-07-10 14:31:00,
2013-07-10 10:46:00,80.0,73.0,30.08,East,90,0.0,0.0,78,0.00,,,0.01,weatherlink.com 1.10,2013-07-10 14:46:00,
2013-07-10 11:01:00,80.6,72.0,30.09,East,92,4.0,8.0,76,0.00,,,0.01,weatherlink.com 1.10,2013-07-10 15:01:00,
2013-07-10 11:16:00,80.6,72.0,30.09,East,92,0.0,6.0,75,0.00,,,0.01,weatherlink.com 1.10,2013-07-10 15:16:00,
2013-07-10 11:31:00,81.0,71.0,30.09,East,90,5.0,8.0,72,0.00,,,0.01,weatherlink.com 1.10,2013-07-10 15:31:00,
2013-07-10 11:46:00,81.0,71.0,30.09,East,88,5.0,9.0,71,0.00,,,0.01,weatherlink.com 1.10,2013-07-10 15:46:00,
2013-07-10 12:01:00,81.5,73.0,30.08,East,81,5.0,7.0,75,0.00,,,0.01,weatherlink.com 1.10,2013-07-10 16:01:00,
2013-07-10 12:16:00,81.3,74.0,30.08,East,87,16.0,18.0,78,0.00,,,0.01,weatherlink.com 1.10,2013-07-10 16:16:00,
2013-07-10 12:31:00,79.8,74.0,30.08,ESE,106,1.0,7.0,83,0.00,,,0.01,weatherlink.com 1.10,2013-07-10 16:31:00,
2013-07-10 12:46:00,80.0,74.0,30.07,East,99,2.0,9.0,81,0.00,,,0.01,weatherlink.com 1.10,2013-07-10 16:46:00,
2013-07-10 13:01:00,80.2,73.0,30.07,ESE,123,2.0,9.0,79,0.00,,,0.01,weatherlink.com 1.10,2013-07-10 17:01:00,
2013-07-10 13:16:00,81.0,73.0,30.07,East,93,10.0,13.0,76,0.00,,,0.01,weatherlink.com 1.10,2013-07-10 17:16:00,
2013-07-10 13:31:00,80.6,73.0,30.07,East,91,7.0,13.0,78,0.00,,,0.01,weatherlink.com 1.10,2013-07-10 17:31:00,
2013-07-10 13:46:00,81.1,74.0,30.07,East,96,2.0,15.0,79,0.00,,,0.01,weatherlink.com 1.10,2013-07-10 17:46:00,
2013-07-10 14:01:00,82.1,74.0,30.07,ESE,119,4.0,10.0,76,0.00,,,0.01,weatherlink.com 1.10,2013-07-10 18:01:00,
2013-07-10 14:16:00,82.3,73.0,30.05,ESE,113,4.0,13.0,74,0.00,,,0.01,weatherlink.com 1.10,2013-07-10 18:16:00,
2013-07-10 14:31:00,82.3,72.0,30.05,ESE,104,5.0,10.0,72,0.00,,,0.01,weatherlink.com 1.10,2013-07-10 18:31:00,
2013-07-10 14:46:00,82.5,73.0,30.04,ESE,107,9.0,15.0,72,0.00,,,0.01,weatherlink.com 1.10,2013-07-10 18:46:00,
2013-07-10 15:01:00,82.1,72.0,30.05,SSE,152,5.0,15.0,72,0.00,,,0.01,weatherlink.com 1.10,2013-07-10 19:01:00,
2013-07-10 15:16:00,82.3,73.0,30.05,East,92,7.0,11.0,73,0.00,,,0.01,weatherlink.com 1.10,2013-07-10 19:16:00,
2013-07-10 15:31:00,82.1,73.0,30.04,ESE,123,2.0,15.0,74,0.00,,,0.01,weatherlink.com 1.10,2013-07-10 19:31:00,
2013-07-10 15:47:00,81.9,74.0,30.04,SE,127,2.0,13.0,76,0.00,,,0.01,weatherlink.com 1.10,2013-07-10 19:47:00,
2013-07-10 16:01:00,82.5,74.0,30.04,ESE,121,5.0,11.0,75,0.00,,,0.01,weatherlink.com 1.10,2013-07-10 20:01:00,
2013-07-10 16:16:00,82.9,75.0,30.03,East,92,5.0,12.0,76,0.00,,,0.01,weatherlink.com 1.10,2013-07-10 20:16:00,
2013-07-10 16:32:00,82.7,74.0,30.02,ESE,102,5.0,12.0,75,0.00,,,0.01,weatherlink.com 1.10,2013-07-10 20:32:00,
2013-07-10 16:47:00,82.7,74.0,30.02,ESE,104,5.0,17.0,76,0.00,,,0.01,weatherlink.com 1.10,2013-07-10 20:47:00,
2013-07-10 17:02:00,82.1,74.0,30.02,ESE,121,5.0,16.0,76,0.00,,,0.01,weatherlink.com 1.10,2013-07-10 21:02:00,
2013-07-10 17:17:00,81.7,74.0,30.02,SE,131,4.0,15.0,78,0.00,,,0.01,weatherlink.com 1.10,2013-07-10 21:17:00,
2013-07-10 17:32:00,81.5,74.0,30.02,ESE,120,4.0,11.0,78,0.00,,,0.01,weatherlink.com 1.10,2013-07-10 21:32:00,
2013-07-10 17:47:00,81.5,74.0,30.02,ESE,123,2.0,10.0,78,0.00,,,0.01,weatherlink.com 1.10,2013-07-10 21:47:00,
2013-07-10 18:02:00,81.5,73.0,30.01,ESE,114,7.0,9.0,76,0.00,,,0.01,weatherlink.com 1.10,2013-07-10 22:02:00,
2013-07-10 18:17:00,81.5,74.0,30.01,ESE,112,1.0,10.0,77,0.00,,,0.01,weatherlink.com 1.10,2013-07-10 22:17:00,
2013-07-10 18:32:00,81.5,74.0,30.01,ESE,123,2.0,12.0,78,0.00,,,0.01,weatherlink.com 1.10,2013-07-10 22:32:00,
2013-07-10 18:47:00,81.1,74.0,30.01,SE,127,3.0,11.0,78,0.00,,,0.01,weatherlink.com 1.10,2013-07-10 22:47:00,
2013-07-10 19:02:00,81.3,72.0,30.01,SE,145,0.0,6.0,74,0.00,,,0.01,weatherlink.com 1.10,2013-07-10 23:02:00,
2013-07-10 19:17:00,81.3,73.0,30.01,SE,137,0.0,7.0,75,0.00,,,0.01,weatherlink.com 1.10,2013-07-10 23:17:00,
2013-07-10 19:32:00,81.3,73.0,30.01,SE,136,0.0,8.0,76,0.00,,,0.01,weatherlink.com 1.10,2013-07-10 23:32:00,
2013-07-10 19:47:00,81.1,73.0,30.02,ESE,123,0.0,12.0,76,0.00,,,0.01,weatherlink.com 1.10,2013-07-10 23:47:00,
2013-07-10 20:02:00,81.0,72.0,30.02,SE,140,4.0,9.0,73,0.00,,,0.01,weatherlink.com 1.10,2013-07-11 00:02:00,
2013-07-10 20:17:00,81.1,72.0,30.02,SSE,154,4.0,11.0,74,0.00,,,0.01,weatherlink.com 1.10,2013-07-11 00:17:00,
2013-07-10 20:32:00,81.0,72.0,30.02,SE,131,6.0,7.0,75,0.00,,,0.01,weatherlink.com 1.10,2013-07-11 00:32:00,
2013-07-10 20:47:00,80.8,73.0,30.02,SSE,148,3.0,9.0,76,0.00,,,0.01,weatherlink.com 1.10,2013-07-11 00:47:00,
2013-07-10 21:02:00,81.0,73.0,30.02,SE,142,4.0,9.0,77,0.00,,,0.01,weatherlink.com 1.10,2013-07-11 01:02:00,
2013-07-10 21:17:00,81.0,74.0,30.02,ESE,121,2.0,12.0,78,0.00,,,0.01,weatherlink.com 1.10,2013-07-11 01:17:00,
2013-07-10 21:32:00,80.8,73.0,30.02,SE,139,0.0,8.0,78,0.00,,,0.01,weatherlink.com 1.10,2013-07-11 01:32:00,
2013-07-10 21:47:00,80.8,73.0,30.02,SE,146,0.0,9.0,78,0.00,,,0.01,weatherlink.com 1.10,2013-07-11 01:47:00,
2013-07-10 22:02:00,80.8,73.0,30.03,SE,138,0.0,6.0,77,0.00,,,0.01,weatherlink.com 1.10,2013-07-11 02:02:00,
2013-07-10 22:17:00,80.8,73.0,30.03,SE,145,0.0,5.0,76,0.00,,,0.01,weatherlink.com 1.10,2013-07-11 02:17:00,
2013-07-10 22:32:00,80.8,73.0,30.03,SE,139,0.0,6.0,76,0.00,,,0.01,weatherlink.com 1.10,2013-07-11 02:32:00,
2013-07-10 22:47:00,81.0,73.0,30.04,SE,137,0.0,5.0,77,0.00,,,0.01,weatherlink.com 1.10,2013-07-11 02:47:00,
2013-07-10 23:02:00,80.8,73.0,30.04,SE,140,0.0,4.0,77,0.00,,,0.01,weatherlink.com 1.10,2013-07-11 03:02:00,
2013-07-10 23:17:00,80.8,73.0,30.05,SE,142,2.0,5.0,77,0.00,,,0.01,weatherlink.com 1.10,2013-07-11 03:17:00,
2013-07-10 23:32:00,81.0,73.0,30.05,SE,135,0.0,3.0,77,0.00,,,0.01,weatherlink.com 1.10,2013-07-11 03:32:00,
2013-07-10 23:47:00,81.0,74.0,30.05,SE,135,0.0,1.0,78,0.00,,,0.01,weatherlink.com 1.10,2013-07-11 03:47:00,